sensor_id;sensor_type;location;lat;lon;timestamp;pressure;altitude;pressure_sealevel;temperature;humidity
42887;BME280;29032;56.028;92.904;2023-02-01T00:04:37;100796.06;;;-12.41;43.46
42887;BME280;29032;56.028;92.904;2023-02-01T00:09:39;100793.09;;;-12.32;43.04
42887;BME280;29032;56.028;92.904;2023-02-01T00:14:41;100784.47;;;-12.45;43.23
42887;BME280;29032;56.028;92.904;2023-02-01T00:19:45;100788.41;;;-12.65;43.65
42887;BME280;29032;56.028;92.904;2023-02-01T00:24:47;100783.31;;;-12.70;43.87
42887;BME280;29032;56.028;92.904;2023-02-01T00:29:49;100799.72;;;-12.82;43.69
42887;BME280;29032;56.028;92.904;2023-02-01T00:34:53;100799.34;;;-12.81;43.65
42887;BME280;29032;56.028;92.904;2023-02-01T00:39:55;100794.88;;;-12.70;43.29
42887;BME280;29032;56.028;92.904;2023-02-01T00:44:57;100810.19;;;-12.51;43.38
42887;BME280;29032;56.028;92.904;2023-02-01T00:50:00;100814.03;;;-12.22;43.23
42887;BME280;29032;56.028;92.904;2023-02-01T00:55:03;100816.66;;;-11.99;42.26
42887;BME280;29032;56.028;92.904;2023-02-01T01:00:06;100812.03;;;-11.95;40.48
42887;BME280;29032;56.028;92.904;2023-02-01T01:05:10;100815.25;;;-12.46;40.53
42887;BME280;29032;56.028;92.904;2023-02-01T01:10:12;100822.56;;;-13.22;41.18
42887;BME280;29032;56.028;92.904;2023-02-01T01:15:14;100818.38;;;-13.62;41.83
42887;BME280;29032;56.028;92.904;2023-02-01T01:20:18;100822.81;;;-13.92;42.01
42887;BME280;29032;56.028;92.904;2023-02-01T01:25:20;100826.78;;;-14.06;42.23
42887;BME280;29032;56.028;92.904;2023-02-01T01:30:23;100832.44;;;-14.11;42.13
42887;BME280;29032;56.028;92.904;2023-02-01T01:35:29;100835.13;;;-14.11;41.89
42887;BME280;29032;56.028;92.904;2023-02-01T01:40:31;100842.41;;;-14.11;41.79
42887;BME280;29032;56.028;92.904;2023-02-01T01:45:34;100833.03;;;-14.02;41.61
42887;BME280;29032;56.028;92.904;2023-02-01T01:50:40;100841.88;;;-14.01;41.64
42887;BME280;29032;56.028;92.904;2023-02-01T01:55:44;100846.31;;;-14.09;41.94
42887;BME280;29032;56.028;92.904;2023-02-01T02:00:48;100848.56;;;-14.11;41.89
42887;BME280;29032;56.028;92.904;2023-02-01T02:05:54;100856.22;;;-14.13;41.58
42887;BME280;29032;56.028;92.904;2023-02-01T02:10:59;100848.19;;;-14.28;41.73
42887;BME280;29032;56.028;92.904;2023-02-01T02:16:16;100859.97;;;-14.17;42.14
42887;BME280;29032;56.028;92.904;2023-02-01T02:21:41;100858.13;;;-14.13;42.60
42887;BME280;29032;56.028;92.904;2023-02-01T02:27:02;100858.66;;;-13.88;43.21
42887;BME280;29032;56.028;92.904;2023-02-01T02:37:41;100867.19;;;-13.21;42.55
42887;BME280;29032;56.028;92.904;2023-02-01T02:42:52;100867.16;;;-13.02;42.58
42887;BME280;29032;56.028;92.904;2023-02-01T02:48:01;100866.97;;;-12.89;42.19
42887;BME280;29032;56.028;92.904;2023-02-01T02:53:15;100864.97;;;-12.70;42.57
42887;BME280;29032;56.028;92.904;2023-02-01T02:58:19;100862.75;;;-12.64;42.33
42887;BME280;29032;56.028;92.904;2023-02-01T03:03:23;100861.91;;;-12.42;41.77
42887;BME280;29032;56.028;92.904;2023-02-01T03:08:27;100864.31;;;-12.37;42.16
42887;BME280;29032;56.028;92.904;2023-02-01T03:13:38;100859.84;;;-12.52;41.97
42887;BME280;29032;56.028;92.904;2023-02-01T03:18:49;100873.34;;;-12.52;42.41
42887;BME280;29032;56.028;92.904;2023-02-01T03:23:57;100866.16;;;-12.67;42.32
42887;BME280;29032;56.028;92.904;2023-02-01T03:29:07;100869.69;;;-12.63;42.83
42887;BME280;29032;56.028;92.904;2023-02-01T03:34:11;100867.94;;;-12.52;41.97
42887;BME280;29032;56.028;92.904;2023-02-01T03:39:22;100877.78;;;-12.37;42.06
42887;BME280;29032;56.028;92.904;2023-02-01T03:44:28;100861.66;;;-12.33;41.92
42887;BME280;29032;56.028;92.904;2023-02-01T03:49:35;100868.31;;;-12.27;41.69
42887;BME280;29032;56.028;92.904;2023-02-01T03:54:42;100864.81;;;-12.27;42.31
42887;BME280;29032;56.028;92.904;2023-02-01T03:59:45;100877.22;;;-12.23;42.22
42887;BME280;29032;56.028;92.904;2023-02-01T04:04:47;100860.91;;;-12.33;42.38
42887;BME280;29032;56.028;92.904;2023-02-01T04:09:53;100856.88;;;-12.43;42.38
42887;BME280;29032;56.028;92.904;2023-02-01T04:14:55;100870.75;;;-12.45;42.74
42887;BME280;29032;56.028;92.904;2023-02-01T04:19:58;100863.25;;;-12.28;42.25
42887;BME280;29032;56.028;92.904;2023-02-01T04:25:01;100864.09;;;-12.24;42.11
42887;BME280;29032;56.028;92.904;2023-02-01T04:30:04;100870.31;;;-12.20;42.00
42887;BME280;29032;56.028;92.904;2023-02-01T04:35:07;100869.72;;;-12.06;41.77
42887;BME280;29032;56.028;92.904;2023-02-01T04:40:12;100871.41;;;-11.95;42.03
42887;BME280;29032;56.028;92.904;2023-02-01T04:45:14;100868.41;;;-11.86;42.19
42887;BME280;29032;56.028;92.904;2023-02-01T04:50:16;100869.78;;;-11.69;41.92
42887;BME280;29032;56.028;92.904;2023-02-01T04:55:20;100862.63;;;-11.55;42.04
42887;BME280;29032;56.028;92.904;2023-02-01T05:00:22;100872.63;;;-11.55;41.93
42887;BME280;29032;56.028;92.904;2023-02-01T05:05:25;100867.63;;;-11.53;41.75
42887;BME280;29032;56.028;92.904;2023-02-01T05:10:29;100874.75;;;-11.38;42.12
42887;BME280;29032;56.028;92.904;2023-02-01T05:15:31;100866.81;;;-11.20;41.29
42887;BME280;29032;56.028;92.904;2023-02-01T05:20:33;100864.28;;;-11.02;41.60
42887;BME280;29032;56.028;92.904;2023-02-01T05:25:37;100861.75;;;-10.81;41.65
42887;BME280;29032;56.028;92.904;2023-02-01T05:30:39;100862.63;;;-10.70;42.55
42887;BME280;29032;56.028;92.904;2023-02-01T05:35:41;100864.66;;;-10.52;41.71
42887;BME280;29032;56.028;92.904;2023-02-01T05:40:45;100856.63;;;-10.38;41.83
42887;BME280;29032;56.028;92.904;2023-02-01T05:45:47;100851.31;;;-10.27;41.60
42887;BME280;29032;56.028;92.904;2023-02-01T05:50:49;100845.94;;;-10.17;41.96
42887;BME280;29032;56.028;92.904;2023-02-01T05:55:53;100845.22;;;-10.03;42.11
42887;BME280;29032;56.028;92.904;2023-02-01T06:00:55;100839.13;;;-9.82;41.98
42887;BME280;29032;56.028;92.904;2023-02-01T06:05:57;100830.69;;;-9.63;42.06
42887;BME280;29032;56.028;92.904;2023-02-01T06:11:02;100839.66;;;-9.44;42.09
42887;BME280;29032;56.028;92.904;2023-02-01T06:16:05;100832.31;;;-9.29;41.52
42887;BME280;29032;56.028;92.904;2023-02-01T06:21:08;100821.47;;;-9.19;41.98
42887;BME280;29032;56.028;92.904;2023-02-01T06:26:11;100833.09;;;-9.11;41.81
42887;BME280;29032;56.028;92.904;2023-02-01T06:31:14;100836.97;;;-8.98;41.87
42887;BME280;29032;56.028;92.904;2023-02-01T06:36:16;100833.88;;;-8.82;41.33
42887;BME280;29032;56.028;92.904;2023-02-01T06:41:19;100842.41;;;-8.73;41.66
42887;BME280;29032;56.028;92.904;2023-02-01T06:46:21;100837.38;;;-8.74;40.89
42887;BME280;29032;56.028;92.904;2023-02-01T06:51:25;100840.88;;;-8.88;41.59
42887;BME280;29032;56.028;92.904;2023-02-01T06:56:29;100841.63;;;-8.91;41.39
42887;BME280;29032;56.028;92.904;2023-02-01T07:01:31;100847.03;;;-8.98;41.61
42887;BME280;29032;56.028;92.904;2023-02-01T07:06:34;100854.44;;;-8.95;42.15
42887;BME280;29032;56.028;92.904;2023-02-01T07:11:37;100851.72;;;-8.95;42.19
42887;BME280;29032;56.028;92.904;2023-02-01T07:16:39;100847.03;;;-8.70;42.42
42887;BME280;29032;56.028;92.904;2023-02-01T07:21:41;100843.88;;;-8.29;41.65
42887;BME280;29032;56.028;92.904;2023-02-01T07:26:45;100839.09;;;-7.82;41.33
42887;BME280;29032;56.028;92.904;2023-02-01T07:31:47;100842.03;;;-7.52;40.69
42887;BME280;29032;56.028;92.904;2023-02-01T07:36:49;100825.13;;;-7.22;40.17
42887;BME280;29032;56.028;92.904;2023-02-01T07:41:53;100834.88;;;-7.24;40.39
42887;BME280;29032;56.028;92.904;2023-02-01T07:46:55;100843.25;;;-6.97;39.97
42887;BME280;29032;56.028;92.904;2023-02-01T07:51:57;100822.06;;;-6.75;39.79
42887;BME280;29032;56.028;92.904;2023-02-01T07:57:00;100820.34;;;-6.59;40.14
42887;BME280;29032;56.028;92.904;2023-02-01T08:02:02;100818.50;;;-6.28;39.49
42887;BME280;29032;56.028;92.904;2023-02-01T08:07:05;100823.88;;;-6.24;39.31
42887;BME280;29032;56.028;92.904;2023-02-01T08:12:08;100814.34;;;-6.43;39.43
42887;BME280;29032;56.028;92.904;2023-02-01T08:17:10;100825.31;;;-6.91;40.13
42887;BME280;29032;56.028;92.904;2023-02-01T08:22:12;100819.75;;;-7.25;40.99
42887;BME280;29032;56.028;92.904;2023-02-01T08:27:16;100818.66;;;-7.39;41.01
42887;BME280;29032;56.028;92.904;2023-02-01T08:32:18;100821.91;;;-7.61;41.84
42887;BME280;29032;56.028;92.904;2023-02-01T08:37:20;100826.63;;;-7.76;41.73
42887;BME280;29032;56.028;92.904;2023-02-01T08:42:24;100822.38;;;-7.84;41.64
42887;BME280;29032;56.028;92.904;2023-02-01T08:47:26;100825.94;;;-7.95;42.43
42887;BME280;29032;56.028;92.904;2023-02-01T08:52:28;100826.72;;;-8.01;42.38
42887;BME280;29032;56.028;92.904;2023-02-01T08:57:32;100825.53;;;-7.89;41.83
42887;BME280;29032;56.028;92.904;2023-02-01T09:02:34;100831.38;;;-7.95;42.01
42887;BME280;29032;56.028;92.904;2023-02-01T09:07:36;100837.56;;;-7.94;42.21
42887;BME280;29032;56.028;92.904;2023-02-01T09:12:40;100841.06;;;-7.90;42.36
42887;BME280;29032;56.028;92.904;2023-02-01T09:17:42;100835.22;;;-7.92;42.10
42887;BME280;29032;56.028;92.904;2023-02-01T09:22:44;100840.28;;;-7.94;42.28
42887;BME280;29032;56.028;92.904;2023-02-01T09:27:48;100844.56;;;-7.97;42.43
42887;BME280;29032;56.028;92.904;2023-02-01T09:32:50;100844.66;;;-8.18;43.00
42887;BME280;29032;56.028;92.904;2023-02-01T09:37:52;100852.41;;;-8.27;42.96
42887;BME280;29032;56.028;92.904;2023-02-01T09:43:15;100858.59;;;-8.16;42.45
42887;BME280;29032;56.028;92.904;2023-02-01T09:48:29;100854.34;;;-8.17;43.18
42887;BME280;29032;56.028;92.904;2023-02-01T09:53:35;100861.69;;;-8.21;43.19
42887;BME280;29032;56.028;92.904;2023-02-01T09:58:42;100859.41;;;-8.33;41.96
42887;BME280;29032;56.028;92.904;2023-02-01T10:03:46;100863.28;;;-8.41;41.69
42887;BME280;29032;56.028;92.904;2023-02-01T10:09:20;100869.47;;;-8.27;41.63
42887;BME280;29032;56.028;92.904;2023-02-01T10:14:43;100867.16;;;-8.32;41.23
42887;BME280;29032;56.028;92.904;2023-02-01T10:19:58;100869.88;;;-8.32;41.60
42887;BME280;29032;56.028;92.904;2023-02-01T10:25:08;100875.69;;;-8.37;41.18
42887;BME280;29032;56.028;92.904;2023-02-01T10:30:20;100880.72;;;-8.35;41.45
42887;BME280;29032;56.028;92.904;2023-02-01T10:35:27;100890.44;;;-8.31;41.50
42887;BME280;29032;56.028;92.904;2023-02-01T10:40:30;100891.59;;;-8.28;40.95
42887;BME280;29032;56.028;92.904;2023-02-01T10:45:34;100886.53;;;-8.26;41.21
42887;BME280;29032;56.028;92.904;2023-02-01T10:50:44;100890.41;;;-8.27;41.13
42887;BME280;29032;56.028;92.904;2023-02-01T10:55:49;100886.56;;;-8.40;41.23
42887;BME280;29032;56.028;92.904;2023-02-01T11:00:57;100883.06;;;-8.41;41.22
42887;BME280;29032;56.028;92.904;2023-02-01T11:06:00;100889.69;;;-8.53;42.09
42887;BME280;29032;56.028;92.904;2023-02-01T11:11:03;100900.53;;;-8.60;41.86
42887;BME280;29032;56.028;92.904;2023-02-01T11:16:11;100916.41;;;-8.69;42.22
42887;BME280;29032;56.028;92.904;2023-02-01T11:21:14;100911.34;;;-8.92;42.97
42887;BME280;29032;56.028;92.904;2023-02-01T11:26:21;100917.94;;;-8.96;42.85
42887;BME280;29032;56.028;92.904;2023-02-01T11:31:26;100916.78;;;-8.95;42.50
42887;BME280;29032;56.028;92.904;2023-02-01T11:36:31;100915.22;;;-9.04;43.24
42887;BME280;29032;56.028;92.904;2023-02-01T11:41:41;100927.63;;;-9.02;42.45
42887;BME280;29032;56.028;92.904;2023-02-01T11:46:45;100929.94;;;-9.08;42.34
42887;BME280;29032;56.028;92.904;2023-02-01T11:51:57;100923.75;;;-9.09;42.41
42887;BME280;29032;56.028;92.904;2023-02-01T11:57:15;100928.75;;;-9.21;42.17
42887;BME280;29032;56.028;92.904;2023-02-01T12:02:47;100926.75;;;-9.35;42.62
42887;BME280;29032;56.028;92.904;2023-02-01T12:13:34;100929.06;;;-9.41;42.24
42887;BME280;29032;56.028;92.904;2023-02-01T12:18:52;100942.28;;;-9.21;42.12
42887;BME280;29032;56.028;92.904;2023-02-01T12:24:19;100943.44;;;-9.29;41.98
42887;BME280;29032;56.028;92.904;2023-02-01T12:29:48;100947.28;;;-9.34;41.90
42887;BME280;29032;56.028;92.904;2023-02-01T12:35:15;100948.00;;;-9.51;41.71
42887;BME280;29032;56.028;92.904;2023-02-01T12:40:28;100946.78;;;-9.65;41.70
42887;BME280;29032;56.028;92.904;2023-02-01T12:45:38;100948.34;;;-9.53;41.20
42887;BME280;29032;56.028;92.904;2023-02-01T12:50:46;100939.44;;;-9.53;41.80
42887;BME280;29032;56.028;92.904;2023-02-01T12:55:53;100941.38;;;-9.57;41.73
42887;BME280;29032;56.028;92.904;2023-02-01T13:01:00;100949.94;;;-9.52;41.67
42887;BME280;29032;56.028;92.904;2023-02-01T13:06:09;100956.16;;;-9.44;40.24
42887;BME280;29032;56.028;92.904;2023-02-01T13:11:16;100953.84;;;-9.42;41.10
42887;BME280;29032;56.028;92.904;2023-02-01T13:16:25;100960.47;;;-9.29;41.18
42887;BME280;29032;56.028;92.904;2023-02-01T13:21:33;100963.97;;;-9.18;40.84
42887;BME280;29032;56.028;92.904;2023-02-01T13:26:36;100969.41;;;-9.18;41.35
42887;BME280;29032;56.028;92.904;2023-02-01T13:37:25;100971.75;;;-9.06;41.54
42887;BME280;29032;56.028;92.904;2023-02-01T13:42:33;100970.94;;;-9.24;41.75
42887;BME280;29032;56.028;92.904;2023-02-01T13:47:41;100968.16;;;-9.42;41.64
42887;BME280;29032;56.028;92.904;2023-02-01T13:52:52;100976.28;;;-9.45;41.87
42887;BME280;29032;56.028;92.904;2023-02-01T13:58:15;100980.91;;;-9.49;41.79
42887;BME280;29032;56.028;92.904;2023-02-01T14:03:21;100922.22;;;-10.00;42.02
42887;BME280;29032;56.028;92.904;2023-02-01T14:08:38;100995.53;;;-9.65;41.65
42887;BME280;29032;56.028;92.904;2023-02-01T14:13:41;100989.44;;;-10.09;41.84
42887;BME280;29032;56.028;92.904;2023-02-01T14:18:59;100989.78;;;-10.15;43.24
42887;BME280;29032;56.028;92.904;2023-02-01T14:24:15;100983.56;;;-10.19;43.11
42887;BME280;29032;56.028;92.904;2023-02-01T14:29:26;100999.75;;;-10.26;43.44
42887;BME280;29032;56.028;92.904;2023-02-01T14:34:49;101004.47;;;-10.16;44.33
42887;BME280;29032;56.028;92.904;2023-02-01T14:39:56;100991.34;;;-10.13;44.09
42887;BME280;29032;56.028;92.904;2023-02-01T14:50:37;100991.41;;;-10.03;43.70
42887;BME280;29032;56.028;92.904;2023-02-01T14:55:44;100979.78;;;-10.07;43.96
42887;BME280;29032;56.028;92.904;2023-02-01T15:00:49;100971.63;;;-10.14;43.22
42887;BME280;29032;56.028;92.904;2023-02-01T15:05:55;100972.56;;;-10.40;43.02
42887;BME280;29032;56.028;92.904;2023-02-01T15:11:01;100961.50;;;-10.72;43.38
42887;BME280;29032;56.028;92.904;2023-02-01T15:16:09;100976.78;;;-10.87;44.28
42887;BME280;29032;56.028;92.904;2023-02-01T15:21:17;100974.19;;;-10.76;44.00
42887;BME280;29032;56.028;92.904;2023-02-01T15:26:30;100967.75;;;-10.64;43.61
42887;BME280;29032;56.028;92.904;2023-02-01T15:31:34;100974.69;;;-10.63;43.71
42887;BME280;29032;56.028;92.904;2023-02-01T15:36:37;100985.59;;;-10.56;43.80
42887;BME280;29032;56.028;92.904;2023-02-01T15:41:42;100979.41;;;-10.53;44.10
42887;BME280;29032;56.028;92.904;2023-02-01T15:46:46;100991.84;;;-10.45;43.24
42887;BME280;29032;56.028;92.904;2023-02-01T15:51:51;100996.53;;;-10.42;43.15
42887;BME280;29032;56.028;92.904;2023-02-01T15:56:56;100997.38;;;-10.31;41.23
42887;BME280;29032;56.028;92.904;2023-02-01T16:02:01;100989.22;;;-10.38;42.54
42887;BME280;29032;56.028;92.904;2023-02-01T16:07:04;100993.88;;;-10.35;41.93
42887;BME280;29032;56.028;92.904;2023-02-01T16:12:31;101002.00;;;-10.35;42.31
42887;BME280;29032;56.028;92.904;2023-02-01T16:17:33;100998.41;;;-10.46;42.19
42887;BME280;29032;56.028;92.904;2023-02-01T16:22:35;100995.66;;;-10.53;42.41
42887;BME280;29032;56.028;92.904;2023-02-01T16:27:39;101001.38;;;-10.58;40.72
42887;BME280;29032;56.028;92.904;2023-02-01T16:32:41;100995.22;;;-10.96;41.53
42887;BME280;29032;56.028;92.904;2023-02-01T16:37:43;100991.22;;;-11.09;42.71
42887;BME280;29032;56.028;92.904;2023-02-01T16:42:50;101001.25;;;-11.10;40.52
42887;BME280;29032;56.028;92.904;2023-02-01T16:47:54;100991.50;;;-11.21;40.01
42887;BME280;29032;56.028;92.904;2023-02-01T16:52:56;101000.97;;;-11.35;40.61
42887;BME280;29032;56.028;92.904;2023-02-01T16:58:00;100999.38;;;-11.36;41.70
42887;BME280;29032;56.028;92.904;2023-02-01T17:03:02;101009.88;;;-11.31;42.32
42887;BME280;29032;56.028;92.904;2023-02-01T17:08:06;101001.84;;;-11.23;41.34
42887;BME280;29032;56.028;92.904;2023-02-01T17:13:12;101017.88;;;-11.08;41.34
42887;BME280;29032;56.028;92.904;2023-02-01T17:18:16;101000.47;;;-11.10;41.01
42887;BME280;29032;56.028;92.904;2023-02-01T17:23:19;101008.19;;;-11.12;41.34
42887;BME280;29032;56.028;92.904;2023-02-01T17:28:23;101022.16;;;-11.07;40.71
42887;BME280;29032;56.028;92.904;2023-02-01T17:33:28;101025.63;;;-11.06;41.20
42887;BME280;29032;56.028;92.904;2023-02-01T17:38:32;101031.72;;;-11.13;40.90
42887;BME280;29032;56.028;92.904;2023-02-01T17:43:36;101040.59;;;-11.12;41.01
42887;BME280;29032;56.028;92.904;2023-02-01T17:48:38;101042.00;;;-11.22;40.37
42887;BME280;29032;56.028;92.904;2023-02-01T17:53:40;101044.91;;;-11.38;40.81
42887;BME280;29032;56.028;92.904;2023-02-01T17:58:44;101044.63;;;-11.59;40.85
42887;BME280;29032;56.028;92.904;2023-02-01T18:03:47;101040.00;;;-11.85;41.13
42887;BME280;29032;56.028;92.904;2023-02-01T18:08:49;101043.31;;;-11.99;41.64
42887;BME280;29032;56.028;92.904;2023-02-01T18:13:53;101046.13;;;-12.15;41.94
42887;BME280;29032;56.028;92.904;2023-02-01T18:18:55;101049.19;;;-12.16;41.89
42887;BME280;29032;56.028;92.904;2023-02-01T18:23:57;101056.81;;;-11.99;42.15
42887;BME280;29032;56.028;92.904;2023-02-01T18:29:01;101059.00;;;-11.78;41.31
42887;BME280;29032;56.028;92.904;2023-02-01T18:34:03;101057.53;;;-11.72;40.98
42887;BME280;29032;56.028;92.904;2023-02-01T18:39:05;101059.91;;;-11.70;41.21
42887;BME280;29032;56.028;92.904;2023-02-01T18:44:12;101063.41;;;-11.66;40.93
42887;BME280;29032;56.028;92.904;2023-02-01T18:49:15;101063.28;;;-11.77;40.54
42887;BME280;29032;56.028;92.904;2023-02-01T18:54:17;101063.63;;;-11.78;40.48
42887;BME280;29032;56.028;92.904;2023-02-01T18:59:22;101074.50;;;-11.71;40.74
42887;BME280;29032;56.028;92.904;2023-02-01T19:04:24;101077.44;;;-11.84;39.27
42887;BME280;29032;56.028;92.904;2023-02-01T19:09:27;101070.66;;;-12.23;40.47
42887;BME280;29032;56.028;92.904;2023-02-01T19:14:30;101071.47;;;-12.42;40.52
42887;BME280;29032;56.028;92.904;2023-02-01T19:19:32;101081.19;;;-12.38;40.35
42887;BME280;29032;56.028;92.904;2023-02-01T19:24:34;101064.28;;;-12.34;39.64
42887;BME280;29032;56.028;92.904;2023-02-01T19:29:38;101061.16;;;-12.37;39.88
42887;BME280;29032;56.028;92.904;2023-02-01T19:34:40;101068.78;;;-12.42;39.58
42887;BME280;29032;56.028;92.904;2023-02-01T19:39:42;101071.19;;;-12.37;39.91
42887;BME280;29032;56.028;92.904;2023-02-01T19:44:46;101071.28;;;-12.53;40.85
42887;BME280;29032;56.028;92.904;2023-02-01T19:49:48;101079.38;;;-12.53;39.46
42887;BME280;29032;56.028;92.904;2023-02-01T19:54:50;101081.25;;;-13.15;39.26
42887;BME280;29032;56.028;92.904;2023-02-01T19:59:54;101085.53;;;-13.65;40.95
42887;BME280;29032;56.028;92.904;2023-02-01T20:04:56;101090.16;;;-13.65;40.26
42887;BME280;29032;56.028;92.904;2023-02-01T20:09:59;101099.09;;;-13.77;40.42
42887;BME280;29032;56.028;92.904;2023-02-01T20:15:02;101100.94;;;-13.81;41.14
42887;BME280;29032;56.028;92.904;2023-02-01T20:20:05;101091.97;;;-13.85;41.19
42887;BME280;29032;56.028;92.904;2023-02-01T20:25:08;101100.97;;;-13.62;40.88
42887;BME280;29032;56.028;92.904;2023-02-01T20:30:12;101112.41;;;-13.49;40.20
42887;BME280;29032;56.028;92.904;2023-02-01T20:35:15;101106.63;;;-13.51;39.93
42887;BME280;29032;56.028;92.904;2023-02-01T20:40:17;101113.66;;;-13.47;39.34
42887;BME280;29032;56.028;92.904;2023-02-01T20:45:21;101115.38;;;-13.38;39.81
42887;BME280;29032;56.028;92.904;2023-02-01T20:50:23;101114.75;;;-13.32;40.32
42887;BME280;29032;56.028;92.904;2023-02-01T20:55:25;101111.06;;;-13.24;40.42
42887;BME280;29032;56.028;92.904;2023-02-01T21:00:29;101117.44;;;-13.12;40.17
42887;BME280;29032;56.028;92.904;2023-02-01T21:05:32;101113.72;;;-13.08;40.11
42887;BME280;29032;56.028;92.904;2023-02-01T21:10:34;101120.00;;;-13.20;40.24
42887;BME280;29032;56.028;92.904;2023-02-01T21:15:42;101116.47;;;-13.24;40.56
42887;BME280;29032;56.028;92.904;2023-02-01T21:20:45;101104.19;;;-13.21;40.60
42887;BME280;29032;56.028;92.904;2023-02-01T21:25:47;101113.97;;;-13.13;41.43
42887;BME280;29032;56.028;92.904;2023-02-01T21:30:51;101120.91;;;-13.12;41.14
42887;BME280;29032;56.028;92.904;2023-02-01T21:35:53;101112.06;;;-13.12;40.66
42887;BME280;29032;56.028;92.904;2023-02-01T21:40:55;101103.03;;;-13.39;41.09
42887;BME280;29032;56.028;92.904;2023-02-01T21:45:58;101107.94;;;-13.61;41.00
42887;BME280;29032;56.028;92.904;2023-02-01T21:51:01;101108.53;;;-13.83;41.60
42887;BME280;29032;56.028;92.904;2023-02-01T21:56:03;101089.38;;;-13.97;41.36
42887;BME280;29032;56.028;92.904;2023-02-01T22:01:07;101082.09;;;-14.13;41.87
42887;BME280;29032;56.028;92.904;2023-02-01T22:06:09;101076.72;;;-14.28;41.49
42887;BME280;29032;56.028;92.904;2023-02-01T22:11:11;101074.91;;;-14.40;41.35
42887;BME280;29032;56.028;92.904;2023-02-01T22:16:15;101075.06;;;-14.49;41.96
42887;BME280;29032;56.028;92.904;2023-02-01T22:21:18;101085.75;;;-14.52;42.13
42887;BME280;29032;56.028;92.904;2023-02-01T22:26:21;101084.44;;;-14.43;42.52
42887;BME280;29032;56.028;92.904;2023-02-01T22:31:24;101093.88;;;-14.33;42.17
42887;BME280;29032;56.028;92.904;2023-02-01T22:36:27;101088.94;;;-14.31;42.40
42887;BME280;29032;56.028;92.904;2023-02-01T22:41:29;101091.88;;;-14.20;41.96
42887;BME280;29032;56.028;92.904;2023-02-01T22:46:32;101090.69;;;-14.07;41.42
42887;BME280;29032;56.028;92.904;2023-02-01T22:51:34;101080.63;;;-14.10;41.21
42887;BME280;29032;56.028;92.904;2023-02-01T22:56:37;101085.66;;;-14.40;41.05
42887;BME280;29032;56.028;92.904;2023-02-01T23:01:40;101081.97;;;-14.64;41.10
42887;BME280;29032;56.028;92.904;2023-02-01T23:06:43;101077.34;;;-14.79;41.73
42887;BME280;29032;56.028;92.904;2023-02-01T23:11:45;101068.56;;;-14.92;41.61
42887;BME280;29032;56.028;92.904;2023-02-01T23:16:49;101070.31;;;-15.11;41.90
42887;BME280;29032;56.028;92.904;2023-02-01T23:21:51;101071.50;;;-15.37;42.14
42887;BME280;29032;56.028;92.904;2023-02-01T23:26:53;101083.38;;;-15.62;42.14
42887;BME280;29032;56.028;92.904;2023-02-01T23:31:57;101088.97;;;-15.68;43.41
42887;BME280;29032;56.028;92.904;2023-02-01T23:36:59;101084.16;;;-15.62;43.14
42887;BME280;29032;56.028;92.904;2023-02-01T23:42:01;101091.88;;;-15.60;43.27
42887;BME280;29032;56.028;92.904;2023-02-01T23:47:05;101100.47;;;-15.55;43.01
42887;BME280;29032;56.028;92.904;2023-02-01T23:52:08;101107.75;;;-15.43;42.84
42887;BME280;29032;56.028;92.904;2023-02-01T23:57:10;101107.25;;;-15.21;42.93
